Time;durP1;ratioP1;P1;durP2;ratioP2;P2;SDS_P1;SDS_P2;PMS_P1;PMS_P2;Temp;Humidity;BMP_temperature;BMP_pressure;BME280_temperature;BME280_humidity;BME280_pressure;Samples;Min_cycle;Max_cycle;Signal;HPM_P1;HPM_P2
2022/08/22 10:53:44;;;;;;;;;;;15.50;49.90;;;;;;6135566;23;19927;-70
2022/08/22 10:56:11;;;;;;;;;;;15.50;50.00;;;;;;6146894;23;19920;-72
2022/08/22 10:59:10;;;;;;;;;;;15.50;49.20;;;;;;6149636;23;19923;-72
2022/08/22 11:01:45;;;;;;;;;;;15.50;49.10;;;;;;6084414;23;19908;-71
2022/08/22 11:04:18;;;;;;;;;;;15.50;49.80;;;;;;6123711;23;20048;-70
2022/08/22 11:06:46;;;;;;;;;;;15.50;49.60;;;;;;6147388;23;19921;-71
2022/08/22 11:09:12;;;;;;;;;;;15.50;49.50;;;;;;6123606;23;19912;-72
2022/08/22 11:11:44;;;;;;;;;;;15.50;49.30;;;;;;6149896;23;19909;-71
2022/08/22 11:14:29;;;;;;;;;;;15.40;49.70;;;;;;6122516;23;19908;-72
2022/08/22 11:17:07;;;;;;;;;;;15.50;50.60;;;;;;6149592;23;19909;-72
2022/08/22 11:19:46;;;;;;;;;;;15.50;49.70;;;;;;6123185;23;19923;-71
2022/08/22 11:22:29;;;;;;;;;;;15.50;49.40;;;;;;6123726;23;19905;-71
2022/08/22 11:25:02;;;;;;;;;;;15.50;49.50;;;;;;6140302;23;19995;-71
2022/08/22 11:27:45;;;;;;;;;;;15.50;49.70;;;;;;6146634;23;20010;-71
2022/08/22 11:30:38;;;;;;;;;;;15.50;50.10;;;;;;6120155;23;19939;-73
2022/08/22 11:33:09;;;;;;;;;;;15.60;50.10;;;;;;6102026;23;19916;-72
2022/08/22 11:35:56;;;;;;;;;;;15.50;51.20;;;;;;6147882;23;19909;-72
2022/08/22 11:38:38;;;;;;;;;;;15.50;50.30;;;;;;6120562;23;20392;-73
2022/08/22 11:41:08;;;;;;;;;;;15.50;50.50;;;;;;6147525;23;20273;-72
2022/08/22 11:43:47;;;;;;;;;;;15.60;50.70;;;;;;6147508;23;19930;-72
2022/08/22 11:46:29;;;;;;;;;;;15.60;50.40;;;;;;6148433;23;19955;-72
2022/08/22 11:49:03;;;;;;;;;;;15.60;50.70;;;;;;6148252;23;20302;-72
2022/08/22 11:51:48;;;;;;;;;;;15.60;50.60;;;;;;6119907;23;19908;-72
2022/08/22 11:54:18;;;;;;;;;;;15.60;50.60;;;;;;6142854;23;19921;-73
2022/08/22 11:56:49;;;;;;;;;;;15.60;51.30;;;;;;6147482;23;19912;-73
2022/08/22 11:59:39;;;;;;;;;;;15.60;51.00;;;;;;6122550;23;20061;-73
2022/08/22 12:02:11;;;;;;;;;;;15.60;50.90;;;;;;6121286;23;19936;-73
2022/08/22 12:04:39;;;;;;;;;;;15.60;51.50;;;;;;6147735;23;19916;-71
2022/08/22 12:07:17;;;;;;;;;;;15.60;51.70;;;;;;6147532;23;19944;-72
2022/08/22 12:09:50;;;;;;;;;;;15.60;52.30;;;;;;6122594;23;19955;-71
2022/08/22 12:12:25;;;;;;;;;;;15.60;51.30;;;;;;6124116;23;19908;-70
2022/08/22 12:15:00;;;;;;;;;;;15.60;51.70;;;;;;6151208;23;19912;-70
2022/08/22 12:17:46;;;;;;;;;;;15.50;52.20;;;;;;6125333;23;19904;-70
2022/08/22 12:20:15;;;;;;;;;;;15.50;53.40;;;;;;6151192;23;19996;-71
2022/08/22 12:22:55;;;;;;;;;;;15.50;53.30;;;;;;6150318;23;19983;-71
2022/08/22 12:25:28;;;;;;;;;;;15.40;53.90;;;;;;6121017;23;19944;-70
2022/08/22 12:28:11;;;;;;;;;;;15.40;53.50;;;;;;6151098;23;19917;-70
2022/08/22 12:30:56;;;;;;;;;;;15.30;53.00;;;;;;6151158;23;20328;-71
2022/08/22 12:33:39;;;;;;;;;;;15.30;53.50;;;;;;6150953;23;20273;-71
2022/08/22 12:36:25;;;;;;;;;;;15.30;53.50;;;;;;6124432;23;19927;-71
2022/08/22 12:39:00;;;;;;;;;;;15.20;54.10;;;;;;6151551;23;19928;-71
2022/08/22 12:41:35;;;;;;;;;;;15.10;53.30;;;;;;6127257;23;19908;-71
2022/08/22 12:44:20;;;;;;;;;;;15.10;53.10;;;;;;6153779;23;19908;-71
2022/08/22 12:47:07;;;;;;;;;;;15.20;52.00;;;;;;6127465;23;20019;-70
2022/08/22 12:49:37;;;;;;;;;;;15.20;51.70;;;;;;6095396;23;20319;-71
2022/08/22 12:52:32;;;;;;;;;;;15.20;51.70;;;;;;6153000;23;19916;-71
2022/08/22 12:55:05;;;;;;;;;;;15.20;51.00;;;;;;6148694;23;19912;-71
2022/08/22 12:57:38;;;;;;;;;;;15.30;51.10;;;;;;6152700;23;20320;-70
2022/08/22 13:00:34;;;;;;;;;;;15.30;51.00;;;;;;6127329;23;19912;-71
2022/08/22 13:03:07;;;;;;;;;;;15.30;50.50;;;;;;6109719;23;19950;-72
2022/08/22 13:05:37;;;;;;;;;;;15.30;50.30;;;;;;6102428;23;19912;-71
2022/08/22 13:08:11;;;;;;;;;;;15.30;49.60;;;;;;6103268;23;19909;-73
2022/08/22 13:10:38;;;;;;;;;;;15.30;49.90;;;;;;6126324;23;19916;-71
2022/08/22 13:13:08;;;;;;;;;;;15.30;49.90;;;;;;6153219;23;19915;-71
2022/08/22 13:15:44;;;;;;;;;;;15.30;50.40;;;;;;6101335;23;19913;-70
2022/08/22 13:18:23;;;;;;;;;;;15.30;50.10;;;;;;6153708;23;19928;-70
2022/08/22 13:20:50;;;;;;;;;;;15.40;50.50;;;;;;6127897;23;19920;-70
2022/08/22 13:26:00;;;;;;;;;;;15.40;50.60;;;;;;6149464;23;19976;-70
2022/08/22 13:28:27;;;;;;;;;;;15.30;50.60;;;;;;6153382;23;19916;-69
2022/08/22 13:30:54;;;;;;;;;;;15.30;50.50;;;;;;6126270;23;19909;-69
2022/08/22 13:33:27;;;;;;;;;;;15.40;50.30;;;;;;6126712;23;19909;-68
2022/08/22 13:35:55;;;;;;;;;;;15.30;50.30;;;;;;6126621;23;19991;-68
2022/08/22 13:38:47;;;;;;;;;;;15.40;50.60;;;;;;6126244;23;19946;-68
2022/08/22 13:41:21;;;;;;;;;;;15.40;50.90;;;;;;6108237;23;20232;-68
2022/08/22 13:43:54;;;;;;;;;;;15.30;50.80;;;;;;6126888;23;19908;-68
2022/08/22 13:46:28;;;;;;;;;;;15.40;51.00;;;;;;6151549;23;19909;-68
2022/08/22 13:48:56;;;;;;;;;;;15.30;51.20;;;;;;6126508;23;20244;-69
2022/08/22 13:51:26;;;;;;;;;;;15.30;51.50;;;;;;6151144;23;19905;-68
2022/08/22 13:54:01;;;;;;;;;;;15.30;51.90;;;;;;6152128;23;19935;-69
2022/08/22 13:56:48;;;;;;;;;;;15.30;52.00;;;;;;6126770;23;19908;-70
2022/08/22 13:59:40;;;;;;;;;;;15.30;53.00;;;;;;6093713;23;19995;-69
2022/08/22 14:02:22;;;;;;;;;;;15.30;51.60;;;;;;6109584;23;19984;-69
2022/08/22 14:04:49;;;;;;;;;;;15.30;51.60;;;;;;6154024;23;19904;-69
2022/08/22 14:07:18;;;;;;;;;;;15.30;52.00;;;;;;6155148;23;19918;-69
2022/08/22 14:09:46;;;;;;;;;;;15.20;51.90;;;;;;6154107;23;19905;-69
2022/08/22 14:12:15;;;;;;;;;;;15.30;51.70;;;;;;6129146;23;19911;-69
2022/08/22 14:14:42;;;;;;;;;;;15.30;51.50;;;;;;6154354;23;20320;-69
2022/08/22 14:17:13;;;;;;;;;;;15.30;51.40;;;;;;6128135;23;19909;-69
2022/08/22 14:19:40;;;;;;;;;;;15.30;51.30;;;;;;6154733;23;19924;-69
2022/08/22 14:22:12;;;;;;;;;;;15.20;51.70;;;;;;6127999;23;19909;-69
2022/08/22 18:32:47;;;;;;;;;;;14.70;56.50;;;;;;6147839;23;19968;-70
2022/08/22 18:35:18;;;;;;;;;;;14.80;57.30;;;;;;6154592;23;20336;-70
2022/08/22 18:37:45;;;;;;;;;;;14.70;57.60;;;;;;6128176;23;19913;-70
2022/08/22 18:40:13;;;;;;;;;;;14.70;57.90;;;;;;6155434;23;20012;-70
2022/08/22 18:43:03;;;;;;;;;;;14.70;57.70;;;;;;6155509;23;19927;-70
2022/08/22 18:45:47;;;;;;;;;;;14.70;57.90;;;;;;6099491;23;19927;-70
2022/08/22 18:48:21;;;;;;;;;;;14.70;58.00;;;;;;6153821;23;19908;-68
2022/08/22 18:50:47;;;;;;;;;;;14.60;58.30;;;;;;6126582;23;20355;-70
2022/08/22 18:53:34;;;;;;;;;;;14.60;58.60;;;;;;6125748;23;19909;-70
2022/08/22 18:56:08;;;;;;;;;;;14.60;58.40;;;;;;6152845;23;19979;-70
2022/08/22 18:58:35;;;;;;;;;;;14.60;58.40;;;;;;6127725;23;19948;-70
2022/08/22 19:01:19;;;;;;;;;;;14.60;58.80;;;;;;6153038;23;19915;-70
2022/08/22 19:04:04;;;;;;;;;;;14.60;58.30;;;;;;6154931;23;19904;-70
2022/08/22 19:06:48;;;;;;;;;;;14.60;58.30;;;;;;6154921;23;19932;-70
2022/08/22 19:09:20;;;;;;;;;;;14.60;58.90;;;;;;6153820;23;19909;-70
2022/08/22 19:11:49;;;;;;;;;;;14.50;58.90;;;;;;6154269;23;19905;-72
2022/08/22 19:14:28;;;;;;;;;;;14.50;59.10;;;;;;6154595;23;19915;-70
2022/08/22 19:16:59;;;;;;;;;;;14.50;59.20;;;;;;6128328;23;19908;-71
2022/08/22 19:22:32;;;;;;;;;;;14.50;59.10;;;;;;6154703;23;19916;-70
2022/08/22 19:25:07;;;;;;;;;;;14.50;59.20;;;;;;6128831;23;20312;-71
2022/08/22 19:27:34;;;;;;;;;;;14.50;59.10;;;;;;6155162;23;19943;-70
2022/08/22 19:30:04;;;;;;;;;;;14.50;58.90;;;;;;6128194;23;20005;-70
2022/08/22 22:08:20;;;;;;;;;;;15.10;60.60;;;;;;6147363;23;19948;-69
2022/08/22 22:10:47;;;;;;;;;;;15.20;60.60;;;;;;6148333;23;19996;-69
2022/08/22 22:13:14;;;;;;;;;;;15.30;60.40;;;;;;6125493;23;19923;-69
2022/08/22 22:15:44;;;;;;;;;;;15.30;61.00;;;;;;6124014;23;19963;-70
2022/08/22 22:18:15;;;;;;;;;;;15.30;61.10;;;;;;6154601;23;19983;-69
2022/08/22 22:20:41;;;;;;;;;;;15.40;61.00;;;;;;6152481;23;19983;-70
2022/08/22 22:23:08;;;;;;;;;;;15.40;60.90;;;;;;6153637;23;20839;-70
2022/08/22 22:25:35;;;;;;;;;;;15.40;61.40;;;;;;6153846;23;19905;-68
2022/08/22 22:28:02;;;;;;;;;;;15.40;60.90;;;;;;6126902;23;19908;-68
2022/08/22 22:30:29;;;;;;;;;;;15.50;61.30;;;;;;6128326;23;19905;-69
2022/08/22 22:32:55;;;;;;;;;;;15.50;61.20;;;;;;6153971;23;20240;-68
2022/08/22 22:35:22;;;;;;;;;;;15.50;61.50;;;;;;6155325;23;19912;-68
2022/08/22 22:37:48;;;;;;;;;;;15.60;61.10;;;;;;6129927;23;19924;-69
2022/08/22 22:40:15;;;;;;;;;;;15.70;61.20;;;;;;6128836;23;20216;-69
2022/08/22 22:42:42;;;;;;;;;;;15.70;61.30;;;;;;6155156;23;19920;-69
2022/08/22 22:45:09;;;;;;;;;;;15.70;61.40;;;;;;6155493;23;19904;-69
2022/08/22 22:47:36;;;;;;;;;;;15.70;61.30;;;;;;6155330;23;19951;-68
2022/08/22 22:50:02;;;;;;;;;;;15.70;61.90;;;;;;6154892;23;20032;-68
2022/08/22 22:52:29;;;;;;;;;;;15.70;62.00;;;;;;6155085;23;19960;-68
2022/08/22 22:54:56;;;;;;;;;;;15.70;61.70;;;;;;6154943;23;19911;-68
2022/08/22 22:57:22;;;;;;;;;;;15.70;61.70;;;;;;6154817;23;20236;-69
2022/08/22 22:59:49;;;;;;;;;;;15.80;61.40;;;;;;6155034;23;19948;-68
2022/08/22 23:02:16;;;;;;;;;;;15.80;61.60;;;;;;6129296;23;20289;-69
2022/08/22 23:04:44;;;;;;;;;;;15.80;61.30;;;;;;6154992;23;20328;-69
2022/08/22 23:07:11;;;;;;;;;;;15.80;61.30;;;;;;6154974;23;19913;-69
2022/08/22 23:09:37;;;;;;;;;;;15.90;61.50;;;;;;6154563;23;19916;-69
2022/08/22 23:12:04;;;;;;;;;;;15.90;61.80;;;;;;6155674;23;19912;-69
2022/08/22 23:14:31;;;;;;;;;;;16.00;61.20;;;;;;6155057;23;19912;-69
2022/08/22 23:16:57;;;;;;;;;;;16.00;61.40;;;;;;6155049;23;20364;-69
2022/08/22 23:19:24;;;;;;;;;;;16.00;61.80;;;;;;6129289;23;19913;-69
2022/08/22 23:21:51;;;;;;;;;;;16.10;61.40;;;;;;6155187;23;19904;-69
2022/08/22 23:24:17;;;;;;;;;;;16.10;61.00;;;;;;6155168;23;19926;-69
2022/08/22 23:26:44;;;;;;;;;;;16.20;61.00;;;;;;6152492;23;20384;-69
2022/08/22 23:29:10;;;;;;;;;;;16.20;61.30;;;;;;6129022;23;19904;-69
2022/08/22 23:31:37;;;;;;;;;;;16.20;61.30;;;;;;6155302;23;19932;-69
2022/08/22 23:34:05;;;;;;;;;;;16.30;61.00;;;;;;6155536;23;19908;-69
2022/08/22 23:36:31;;;;;;;;;;;16.40;60.50;;;;;;6154955;23;20051;-68
2022/08/22 23:38:58;;;;;;;;;;;16.50;60.90;;;;;;6154582;23;19916;-68
2022/08/22 23:41:25;;;;;;;;;;;16.50;60.30;;;;;;6154759;23;19908;-69
2022/08/22 23:43:52;;;;;;;;;;;16.60;60.30;;;;;;6154860;23;20324;-68
2022/08/22 23:46:19;;;;;;;;;;;16.70;60.30;;;;;;6154384;23;19911;-68
2022/08/22 23:48:46;;;;;;;;;;;16.80;60.10;;;;;;6154729;23;19975;-68
2022/08/22 23:51:13;;;;;;;;;;;16.90;59.50;;;;;;6154043;23;19905;-69
2022/08/22 23:53:40;;;;;;;;;;;17.10;58.30;;;;;;6128919;23;19904;-69
2022/08/22 23:56:13;;;;;;;;;;;17.20;57.60;;;;;;6154676;23;20221;-70
2022/08/22 23:58:41;;;;;;;;;;;17.30;57.20;;;;;;6154499;23;20233;-70
